METAR Data
IDs: Format: Raw Decoded Include TAF

Data at: 1913 UTC 25 Sep 2020

KBUU 251855Z AUTO 20009G15KT 160V230 10SM CLR 26/14 A2991 RMK AO2 T02550137 PWINO
KBUU 251835Z AUTO 16008G14KT 10SM CLR 25/14 A2992 RMK AO2 T02520137 PWINO
KBUU 251815Z AUTO 18008G15KT 10SM CLR 25/13 A2993 RMK AO2 T02520134 PWINO
KBUU 251755Z AUTO 18007G15KT 10SM CLR 25/13 A2994 RMK AO2 T02470132 10332 20013 PWINO
KBUU 251735Z AUTO 19006G16KT 10SM CLR 25/13 A2995 RMK AO2 T02460131 PWINO
KBUU 251715Z AUTO 21011G14KT 180V240 10SM CLR 24/13 A2996 RMK AO2 T02440132 PWINO
KBUU 251655Z AUTO 18008G14KT 10SM CLR 24/13 A2996 RMK AO2 T02410134 PWINO
KBUU 251635Z AUTO 19009KT 10SM CLR 24/14 A2997 RMK AO2 T02370135 PWINO
KBUU 251615Z AUTO 19009G14KT 10SM CLR 23/14 A2997 RMK AO2 T02330137 PWINO
KBUU 251555Z AUTO 19007G14KT 10SM CLR 23/14 A2997 RMK AO2 T02270139 PWINO
KBUU 251535Z AUTO 20008KT 160V220 10SM CLR 22/14 A2998 RMK AO2 T02210141 PWINO
KBUU 251515Z AUTO 22008KT 10SM CLR 21/14 A2998 RMK AO2 T02120142 PWINO
KBUU 251455Z AUTO 20004KT 10SM CLR 20/14 A2998 RMK AO2 T02030143 PWINO
KBUU 251435Z AUTO 20007KT 10SM CLR 19/14 A2998 RMK AO2 T01930142 PWINO
KBUU 251415Z AUTO 00000KT 10SM CLR 18/14 A2998 RMK AO2 T01810140 PWINO
KBUU 251355Z AUTO 00000KT 10SM CLR 17/14 A2998 RMK AO2 T01660135 PWINO
KBUU 251335Z AUTO 20003KT 10SM CLR 15/13 A2998 RMK AO2 T01510129 PWINO
KBUU 251315Z AUTO 00000KT 10SM CLR 14/13 A2997 RMK AO2 T01420125 PWINO
KBUU 251255Z AUTO 00000KT 10SM CLR 13/12 A2997 RMK AO2 T01300122 PWINO
KBUU 251235Z AUTO 00000KT 10SM CLR 11/11 A2997 RMK AO2 T01110110 PWINO
KBUU 251215Z AUTO 00000KT 7SM CLR 10/10 A2998 RMK AO2 T01040102 PWINO
KBUU 251155Z AUTO 18003KT 10SM CLR 11/10 A2997 RMK AO2 T01070104 10332 20013 PWINO
KBUU 251135Z AUTO 00000KT 10SM CLR 11/11 A2997 RMK AO2 T01100107 PWINO
KBUU 251115Z AUTO 00000KT 10SM CLR 11/11 A2997 RMK AO2 T01120110 PWINO
KBUU 251055Z AUTO 00000KT 10SM CLR 11/11 A2997 RMK AO2 T01140110 PWINO
KBUU 251035Z AUTO 00000KT 10SM CLR 12/11 A2996 RMK AO2 T01200114 PWINO
KBUU 251015Z AUTO 00000KT 10SM CLR 12/11 A2996 RMK AO2 T01180113 PWINO
KBUU 250955Z AUTO 00000KT 10SM CLR 12/11 A2996 RMK AO2 T01210114 PWINO
KBUU 250935Z AUTO 20004KT 10SM CLR 13/12 A2995 RMK AO2 T01270117 PWINO
KBUU 250915Z AUTO 21004KT 10SM CLR 13/12 A2994 RMK AO2 T01290119 PWINO
KBUU 250855Z AUTO 21004KT 10SM CLR 13/12 A2994 RMK AO2 T01300120 PWINO
KBUU 250835Z AUTO 21004KT 10SM CLR 13/12 A2994 RMK AO2 T01290120 PWINO
KBUU 250815Z AUTO 20003KT 10SM CLR 12/12 A2993 RMK AO2 T01210115 PWINO
KBUU 250755Z AUTO 19003KT 10SM CLR 12/12 A2994 RMK AO2 T01210117 PWINO
KBUU 250735Z AUTO 00000KT 10SM CLR 12/12 A2993 RMK AO2 T01210116 PWINO
KBUU 250715Z AUTO 00000KT 10SM CLR 12/12 A2993 RMK AO2 T01230118 PWINO
KBUU 250655Z AUTO 00000KT 10SM CLR 13/12 A2993 RMK AO2 T01250120 PWINO
KBUU 250635Z AUTO 00000KT 10SM CLR 13/12 A2993 RMK AO2 T01300123 PWINO
KBUU 250615Z AUTO 00000KT 10SM CLR 13/13 A2993 RMK AO2 T01320125 PWINO
KBUU 250555Z AUTO 00000KT 10SM CLR 14/13 A2993 RMK AO2 T01360127 10332 20013 403320013 PWINO
KBUU 250535Z AUTO 00000KT 10SM CLR 14/13 A2993 RMK AO2 T01370125 PWINO
KBUU 250515Z AUTO 00000KT 10SM CLR 14/13 A2993 RMK AO2 T01430128 PWINO
KBUU 250455Z AUTO 19003KT 10SM CLR 15/13 A2993 RMK AO2 T01460130 PWINO
KBUU 250435Z AUTO 20004KT 10SM CLR 15/13 A2993 RMK AO2 T01530133 PWINO
KBUU 250415Z AUTO 22003KT 10SM CLR 16/14 A2993 RMK AO2 T01570135 PWINO
KBUU 250355Z AUTO 22003KT 10SM CLR 16/14 A2993 RMK AO2 T01620136 PWINO
KBUU 250335Z AUTO 22003KT 10SM CLR 16/14 A2993 RMK AO2 T01640138 PWINO
KBUU 250315Z AUTO 23003KT 10SM CLR 16/14 A2993 RMK AO2 T01640140 PWINO
KBUU 250255Z AUTO 21004KT 10SM CLR 17/14 A2992 RMK AO2 T01660144 PWINO
KBUU 250235Z AUTO 00000KT 10SM CLR 17/15 A2992 RMK AO2 T01700147 PWINO
KBUU 250215Z AUTO 23003KT 10SM CLR 18/15 A2992 RMK AO2 T01830148 PWINO
KBUU 250155Z AUTO 19004KT 10SM CLR 18/15 A2992 RMK AO2 T01810151 PWINO
KBUU 250135Z AUTO 21003KT 10SM CLR 18/15 A2992 RMK AO2 T01800154 PWINO
KBUU 250115Z AUTO 00000KT 10SM CLR 18/16 A2991 RMK AO2 T01800158 PWINO
KBUU 250055Z AUTO 00000KT 10SM CLR 18/16 A2991 RMK AO2 T01760160 PWINO
KBUU 250035Z AUTO 00000KT 10SM CLR 18/16 A2991 RMK AO2 T01800161 PWINO
KBUU 250015Z AUTO 00000KT 10SM SCT050 19/16 A2991 RMK AO2 T01940158 PWINO
KBUU 242355Z AUTO 00000KT 10SM SCT047 20/16 A2991 RMK AO2 T02040159 10332 20013 PWINO
KBUU 242335Z AUTO 00000KT 10SM SCT049 21/16 A2991 RMK AO2 T02100160 PWINO
KBUU 242315Z AUTO 00000KT 10SM CLR 22/16 A2991 RMK AO2 T02200156 PWINO
KBUU 242255Z AUTO 00000KT 10SM CLR 23/16 A2990 RMK AO2 T02300155 PWINO
KBUU 242235Z AUTO 19003KT 10SM CLR 24/16 A2989 RMK AO2 T02380155 PWINO
KBUU 242215Z AUTO 00000KT 10SM CLR 23/16 A2989 RMK AO2 T02340155 PWINO
KBUU 242155Z AUTO 00000KT 10SM CLR 24/15 A2989 RMK AO2 T02350151 PWINO
KBUU 242135Z AUTO 23003KT 10SM CLR 24/15 A2989 RMK AO2 T02350150 PWINO
KBUU 242115Z AUTO 23004KT 10SM CLR 24/15 A2988 RMK AO2 T02370149 PWINO
KBUU 242055Z AUTO 19004KT 10SM CLR 24/15 A2987 RMK AO2 T02410149 PWINO
KBUU 242035Z AUTO 23007KT 10SM CLR 24/15 A2988 RMK AO2 T02430152 PWINO
KBUU 242015Z AUTO 23007KT 200V280 10SM CLR 24/15 A2989 RMK AO2 T02430147 PWINO
KBUU 241955Z AUTO 22009G15KT 10SM CLR 24/15 A2990 RMK AO2 T02430148 PWINO
KBUU 241935Z AUTO 23009KT 10SM CLR 25/15 A2990 RMK AO2 T02470148 PWINO
KBUU 241915Z AUTO 23008G14KT 10SM CLR 24/15 A2991 RMK AO2 T02420148 PWINO
KBUU 241855Z AUTO 23009G16KT 10SM CLR 24/15 A2991 RMK AO2 T02400146 PWINO
KBUU 241835Z AUTO 23007KT 200V300 10SM SCT041 24/15 A2992 RMK AO2 T02380149 PWINO
KBUU 241815Z AUTO 22008G16KT 10SM SCT041 24/15 A2992 RMK AO2 T02430146 PWINO
KBUU 241755Z AUTO 23012G18KT 10SM CLR 24/15 A2992 RMK AO2 T02390149 10332 20013 PWINO
KBUU 241735Z AUTO 21009KT 10SM CLR 24/15 A2993 RMK AO2 T02350149 PWINO
KBUU 241715Z AUTO 20008G15KT 160V230 10SM CLR 24/15 A2993 RMK AO2 T02350154 PWINO
KBUU 241655Z AUTO 21009G14KT 10SM CLR 23/16 A2994 RMK AO2 T02310158 PWINO
KBUU 241635Z AUTO 23008KT 10SM CLR 23/16 A2994 RMK AO2 T02290163 PWINO
KBUU 241615Z AUTO 23004KT 10SM CLR 22/17 A2994 RMK AO2 T02230167 PWINO
KBUU 241555Z AUTO 18004KT 10SM CLR 22/17 A2995 RMK AO2 T02170168 PWINO
KBUU 241535Z AUTO 23005KT 10SM CLR 21/17 A2995 RMK AO2 T02100166 PWINO
KBUU 241515Z AUTO 22005KT 10SM CLR 20/16 A2996 RMK AO2 T02010163 PWINO
KBUU 241455Z AUTO 20003KT 10SM CLR 19/16 A2995 RMK AO2 T01900162 PWINO
KBUU 241435Z AUTO 19004KT 10SM CLR 18/16 A2995 RMK AO2 T01790158 PWINO
KBUU 241415Z AUTO 19004KT 10SM CLR 17/15 A2995 RMK AO2 T01680153 PWINO
KBUU 241355Z AUTO 21003KT 10SM CLR 15/15 A2995 RMK AO2 T01540145 PWINO
KBUU 241335Z AUTO 21003KT 10SM CLR 14/14 A2995 RMK AO2 T01420137 PWINO
KBUU 241315Z AUTO 19004KT 10SM CLR 13/13 A2995 RMK AO2 T01260125 PWINO
KBUU 241255Z AUTO 00000KT 7SM CLR 11/11 A2995 RMK AO2 T01100110 PWINO
KBUU 241235Z AUTO 00000KT 7SM CLR 10/10 A2995 RMK AO2 T00960096 PWINO
KBUU 241215Z AUTO 00000KT 3SM CLR 09/09 A2995 RMK AO2 T00890089 PWINO
KBUU 241155Z AUTO 00000KT 1/4SM VV002 09/09 A2995 RMK AO2 T00880088 10332 20013 PWINO
KBUU 241135Z AUTO 00000KT 3/4SM VV005 09/09 A2995 RMK AO2 T00920092 PWINO
KBUU 241115Z AUTO 00000KT 1SM VV007 09/09 A2995 RMK AO2 T00940094 PWINO
KBUU 241055Z AUTO 00000KT 5SM CLR 10/09 A2994 RMK AO2 T00950094 PWINO
KBUU 241035Z AUTO 00000KT 1SM VV007 10/10 A2994 RMK AO2 VIS 1/2V5 T00990097 PWINO
KBUU 241015Z AUTO 00000KT 7SM CLR 10/09 A2994 RMK AO2 T00950093 PWINO
KBUU 240955Z AUTO 00000KT 5SM CLR 10/10 A2994 RMK AO2 T00990098 PWINO
KBUU 240935Z AUTO 00000KT 5SM CLR 10/10 A2994 RMK AO2 T00990097 PWINO
KBUU 240915Z AUTO 00000KT 7SM CLR 10/10 A2994 RMK AO2 T01030101 PWINO
KBUU 240855Z AUTO 00000KT 10SM CLR 10/10 A2994 RMK AO2 T01010099 PWINO
KBUU 240835Z AUTO 00000KT 7SM CLR 10/10 A2994 RMK AO2 T01020100 PWINO
KBUU 240815Z AUTO 00000KT 10SM CLR 11/11 A2993 RMK AO2 T01090105 PWINO
KBUU 240755Z AUTO 21003KT 10SM CLR 12/11 A2993 RMK AO2 T01180114 PWINO
KBUU 240735Z AUTO 22004KT 10SM CLR 11/11 A2994 RMK AO2 T01140112 PWINO
KBUU 240715Z AUTO 21004KT 10SM CLR 11/11 A2994 RMK AO2 T01110110 PWINO